createdAt,value
2019-01-11T00:01:50.927Z,5.93
2019-01-11T00:04:19.333Z,5.63
2019-01-11T00:06:48.762Z,5.33
2019-01-11T00:09:18.344Z,5.13
2019-01-11T00:11:49.870Z,4.93
2019-01-11T00:14:18.003Z,5.60
2019-01-11T00:16:46.081Z,5.60
2019-01-11T00:19:15.135Z,5.70
2019-01-11T00:21:43.747Z,5.73
2019-01-11T00:24:11.958Z,4.73
2019-01-11T00:26:39.974Z,4.90
2019-01-11T00:29:08.566Z,6.30
2019-01-11T00:31:36.467Z,6.03
2019-01-11T00:34:05.361Z,6.33
2019-01-11T00:36:34.064Z,6.17
2019-01-11T00:39:02.113Z,6.43
2019-01-11T00:41:30.190Z,7.83
2019-01-11T00:43:59.377Z,5.70
2019-01-11T00:46:27.334Z,5.30
2019-01-11T00:48:55.639Z,6.77
2019-01-11T00:51:23.682Z,6.33
2019-01-11T00:53:51.767Z,6.33
2019-01-11T00:56:20.467Z,5.67
2019-01-11T00:58:48.493Z,6.40
2019-01-11T01:01:16.741Z,5.37
2019-01-11T01:03:44.967Z,6.03
2019-01-11T01:06:13.310Z,6.73
2019-01-11T01:08:41.762Z,6.77
2019-01-11T01:11:10.229Z,6.00
2019-01-11T01:13:38.416Z,5.77
2019-01-11T01:16:06.619Z,7.23
2019-01-11T01:18:34.710Z,6.87
2019-01-11T01:21:03.067Z,6.80
2019-01-11T01:23:31.697Z,6.00
2019-01-11T01:25:59.833Z,5.37
2019-01-11T01:28:28.141Z,5.83
2019-01-11T01:30:56.550Z,5.87
2019-01-11T01:33:24.697Z,5.93
2019-01-11T01:35:53.296Z,5.17
2019-01-11T01:38:22.074Z,5.63
2019-01-11T01:40:50.351Z,5.60
2019-01-11T01:43:18.690Z,5.77
2019-01-11T01:45:46.808Z,5.70
2019-01-11T01:48:15.217Z,6.03
2019-01-11T01:50:43.567Z,6.23
2019-01-11T01:53:11.593Z,5.73
2019-01-11T01:55:39.661Z,5.67
2019-01-11T01:58:08.031Z,6.47
2019-01-11T02:00:36.215Z,6.10
2019-01-11T02:03:04.684Z,5.83
2019-01-11T02:05:33.178Z,5.30
2019-01-11T02:08:01.581Z,6.40
2019-01-11T02:10:29.656Z,5.77
2019-01-11T02:12:58.940Z,5.93
2019-01-11T02:15:27.810Z,6.20
2019-01-11T02:17:56.013Z,5.00
2019-01-11T02:20:24.066Z,5.93
2019-01-11T02:22:52.772Z,6.17
2019-01-11T02:25:20.924Z,5.93
2019-01-11T02:27:48.897Z,5.73
2019-01-11T02:30:21.475Z,5.47
2019-01-11T02:32:52.967Z,6.03
2019-01-11T02:35:20.174Z,5.07
2019-01-11T02:37:48.341Z,5.43
2019-01-11T02:40:16.474Z,6.20
2019-01-11T02:42:44.505Z,5.47
2019-01-11T02:45:14.840Z,6.20
2019-01-11T02:47:43.409Z,6.10
2019-01-11T02:50:12.764Z,5.30
2019-01-11T02:52:41.560Z,7.00
2019-01-11T02:55:10.671Z,6.97
2019-01-11T02:57:38.971Z,6.77
2019-01-11T03:00:11.400Z,6.03
2019-01-11T03:02:39.725Z,6.47
2019-01-11T03:05:08.633Z,5.33
2019-01-11T03:07:36.772Z,5.70
2019-01-11T03:10:06.673Z,6.10
2019-01-11T03:12:35.525Z,5.70
2019-01-11T03:15:04.494Z,6.23
2019-01-11T03:17:33.366Z,5.37
2019-01-11T03:20:01.840Z,5.63
2019-01-11T03:22:29.923Z,5.30
2019-01-11T03:24:58.181Z,5.37
2019-01-11T03:27:26.870Z,6.17
2019-01-11T03:29:55.281Z,5.57
2019-01-11T03:32:23.851Z,5.67
2019-01-11T03:35:10.373Z,5.50
2019-01-11T03:37:38.518Z,6.60
2019-01-11T03:40:07.987Z,5.77
2019-01-11T03:42:36.651Z,6.03
2019-01-11T03:45:06.581Z,6.07
2019-01-11T03:47:35.149Z,6.10
2019-01-11T03:50:04.030Z,5.93
2019-01-11T03:52:32.191Z,6.17
2019-01-11T03:55:00.564Z,6.80
2019-01-11T03:57:29.532Z,5.33
2019-01-11T03:59:57.755Z,5.97
2019-01-11T04:02:25.672Z,6.20
2019-01-11T04:04:54.356Z,6.43
2019-01-11T04:07:23.053Z,6.83
2019-01-11T04:09:51.727Z,6.50
2019-01-11T04:12:20.214Z,6.30
2019-01-11T04:14:49.712Z,7.10
2019-01-11T04:17:18.380Z,6.83
2019-01-11T04:19:47.382Z,6.60
2019-01-11T04:22:26.114Z,6.27
2019-01-11T04:25:04.678Z,6.70
2019-01-11T04:27:33.076Z,5.67
2019-01-11T04:30:01.294Z,6.17
2019-01-11T04:32:29.898Z,6.10
2019-01-11T04:34:58.229Z,7.27
2019-01-11T04:37:26.957Z,7.20
2019-01-11T04:39:55.317Z,7.53
2019-01-11T04:42:23.682Z,6.97
2019-01-11T04:44:52.068Z,6.60
2019-01-11T04:47:20.792Z,7.07
2019-01-11T04:49:49.172Z,8.70
2019-01-11T04:52:17.507Z,7.33
2019-01-11T04:54:46.263Z,7.60
2019-01-11T04:57:14.785Z,7.20
2019-01-11T04:59:43.386Z,8.20
2019-01-11T05:02:12.830Z,8.63
2019-01-11T05:04:41.049Z,8.90
2019-01-11T05:07:09.412Z,8.53
2019-01-11T05:09:38.050Z,8.60
2019-01-11T05:12:06.082Z,8.60
2019-01-11T05:14:34.250Z,9.17
2019-01-11T05:17:02.545Z,9.13
2019-01-11T05:19:30.877Z,8.07
2019-01-11T05:21:59.107Z,9.13
2019-01-11T05:24:27.152Z,7.90
2019-01-11T05:26:55.570Z,8.17
2019-01-11T05:29:23.509Z,8.27
2019-01-11T05:31:51.576Z,7.80
2019-01-11T05:34:19.761Z,9.00
2019-01-11T05:36:47.692Z,9.70
2019-01-11T05:39:16.065Z,6.73
2019-01-11T05:41:45.094Z,8.40
2019-01-11T05:44:13.146Z,8.37
2019-01-11T05:46:41.855Z,9.07
2019-01-11T05:49:11.023Z,9.03
2019-01-11T05:51:39.536Z,6.50
2019-01-11T05:54:07.954Z,8.60
2019-01-11T05:56:35.965Z,10.00
2019-01-11T05:59:06.446Z,9.73
2019-01-11T06:01:34.510Z,8.93
2019-01-11T06:04:13.390Z,8.17
2019-01-11T06:07:08.979Z,7.77
2019-01-11T06:09:37.219Z,9.57
2019-01-11T06:12:06.207Z,9.87
2019-01-11T06:14:34.548Z,7.20
2019-01-11T06:17:02.664Z,7.90
2019-01-11T06:19:31.189Z,7.17
2019-01-11T06:21:59.358Z,8.30
2019-01-11T06:24:27.537Z,7.67
2019-01-11T06:26:55.540Z,8.17
2019-01-11T06:29:23.885Z,8.43
2019-01-11T06:31:52.762Z,8.43
2019-01-11T06:34:21.090Z,9.03
2019-01-11T06:36:49.034Z,7.80
2019-01-11T06:39:17.194Z,8.20
2019-01-11T06:41:51.950Z,8.20
2019-01-11T06:44:20.021Z,8.63
2019-01-11T06:46:48.570Z,8.07
2019-01-11T06:49:16.892Z,7.80
2019-01-11T06:51:44.833Z,8.37
2019-01-11T06:54:13.342Z,8.50
2019-01-11T06:56:41.166Z,8.17
2019-01-11T06:59:12.131Z,8.90
2019-01-11T07:01:40.165Z,9.53
2019-01-11T07:04:10.457Z,8.87
2019-01-11T07:06:39.069Z,8.20
2019-01-11T07:09:08.385Z,8.50
2019-01-11T07:11:36.600Z,8.77
2019-01-11T07:14:04.921Z,9.27
2019-01-11T07:16:33.529Z,9.90
2019-01-11T07:19:03.321Z,9.67
2019-01-11T07:21:31.210Z,8.23
2019-01-11T07:23:59.261Z,11.30
2019-01-11T07:26:27.340Z,10.37
2019-01-11T07:28:55.540Z,9.47
2019-01-11T07:31:29.846Z,10.00
2019-01-11T07:33:58.500Z,10.47
2019-01-11T07:36:30.944Z,9.73
2019-01-11T07:38:59.273Z,10.20
2019-01-11T07:41:28.043Z,10.40
2019-01-11T07:43:56.777Z,10.87
2019-01-11T07:46:25.358Z,10.50
2019-01-11T07:48:53.879Z,9.73
2019-01-11T07:51:22.506Z,10.03
2019-01-11T07:53:51.191Z,10.77
2019-01-11T07:56:19.593Z,10.60
2019-01-11T07:58:47.665Z,10.47
2019-01-11T08:01:16.341Z,9.40
2019-01-11T08:03:44.403Z,10.47
2019-01-11T08:06:12.786Z,10.17
2019-01-11T08:08:41.108Z,10.93
2019-01-11T08:11:09.545Z,12.10
2019-01-11T08:13:37.708Z,13.57
2019-01-11T08:16:06.757Z,21.40
2019-01-11T08:18:35.385Z,20.30
2019-01-11T08:21:03.814Z,11.43
2019-01-11T08:23:32.089Z,10.90
2019-01-11T08:26:00.216Z,9.07
2019-01-11T08:28:39.603Z,9.70
2019-01-11T08:31:08.281Z,9.40
2019-01-11T08:33:37.105Z,9.73
2019-01-11T08:36:08.451Z,10.07
2019-01-11T08:38:36.906Z,9.20
2019-01-11T08:41:07.369Z,9.13
2019-01-11T08:43:35.636Z,9.10
2019-01-11T08:46:04.406Z,8.50
2019-01-11T08:48:32.738Z,9.50
2019-01-11T08:51:02.784Z,9.53
2019-01-11T08:53:35.217Z,8.27
2019-01-11T08:56:08.496Z,10.00
2019-01-11T08:58:36.764Z,10.77
2019-01-11T09:01:06.258Z,14.93
2019-01-11T09:03:34.386Z,19.47
2019-01-11T09:06:02.551Z,49.07
2019-01-11T09:08:30.597Z,24.77
2019-01-11T09:11:08.213Z,12.20
2019-01-11T09:13:36.562Z,12.57
2019-01-11T09:16:05.133Z,10.83
2019-01-11T09:18:43.285Z,10.27
2019-01-11T09:21:12.138Z,8.77
2019-01-11T09:23:41.717Z,9.90
2019-01-11T09:26:10.452Z,11.33
2019-01-11T09:28:40.676Z,10.30
2019-01-11T09:31:09.289Z,11.37
2019-01-11T09:33:37.206Z,11.50
2019-01-11T09:36:05.180Z,10.33
2019-01-11T09:38:33.432Z,11.07
2019-01-11T09:41:01.921Z,11.53
2019-01-11T09:43:31.054Z,10.97
2019-01-11T09:45:58.899Z,11.20
2019-01-11T09:48:27.144Z,11.97
2019-01-11T09:50:55.346Z,11.13
2019-01-11T09:53:23.916Z,11.90
2019-01-11T09:55:52.168Z,12.53
2019-01-11T09:58:20.725Z,12.23
2019-01-11T10:00:59.119Z,11.47
2019-01-11T10:03:24.332Z,11.87
2019-01-11T10:05:52.489Z,11.77
2019-01-11T10:08:21.721Z,12.03
2019-01-11T10:10:49.848Z,13.47
2019-01-11T10:13:17.838Z,11.93
2019-01-11T10:15:46.002Z,11.33
2019-01-11T10:18:14.029Z,14.07
2019-01-11T10:20:42.454Z,13.97
2019-01-11T10:23:10.814Z,12.07
2019-01-11T10:25:40.060Z,12.87
2019-01-11T10:28:08.429Z,13.30
2019-01-11T10:30:36.911Z,12.57
2019-01-11T10:33:05.691Z,13.90
2019-01-11T10:35:34.560Z,13.00
2019-01-11T10:38:04.410Z,13.77
2019-01-11T10:40:32.483Z,13.10
2019-01-11T10:43:00.785Z,13.17
2019-01-11T10:45:29.012Z,13.83
2019-01-11T10:47:58.348Z,15.87
2019-01-11T10:50:26.355Z,15.33
2019-01-11T10:52:54.978Z,14.47
2019-01-11T10:55:24.187Z,11.90
2019-01-11T10:57:52.831Z,15.00
2019-01-11T11:00:26.868Z,15.17
2019-01-11T11:02:56.386Z,14.97
2019-01-11T11:05:24.901Z,14.67
2019-01-11T11:07:53.120Z,14.30
2019-01-11T11:10:21.299Z,15.70
2019-01-11T11:12:49.151Z,16.57
2019-01-11T11:15:17.611Z,15.80
2019-01-11T11:17:46.081Z,15.23
2019-01-11T11:20:16.302Z,14.93
2019-01-11T11:22:45.734Z,15.63
2019-01-11T11:25:17.070Z,14.90
2019-01-11T11:27:45.486Z,12.87
2019-01-11T11:30:14.318Z,14.57
2019-01-11T11:33:07.970Z,13.67
2019-01-11T11:35:36.977Z,11.87
2019-01-11T11:38:05.916Z,12.30
2019-01-11T11:40:34.390Z,13.53
2019-01-11T11:43:03.126Z,12.37
2019-01-11T11:45:32.241Z,10.90
2019-01-11T11:48:00.753Z,10.97
2019-01-11T11:50:29.374Z,10.63
2019-01-11T11:52:57.850Z,11.17
2019-01-11T11:55:26.186Z,11.43
2019-01-11T11:57:54.955Z,9.87
2019-01-11T12:00:25.769Z,9.53
2019-01-11T12:02:54.133Z,10.03
2019-01-11T12:05:22.583Z,11.23
2019-01-11T12:07:50.829Z,10.83
2019-01-11T12:10:19.635Z,12.95
2019-01-11T12:12:47.865Z,11.67
2019-01-11T12:15:16.571Z,10.17
2019-01-11T12:17:44.440Z,12.13
2019-01-11T12:20:17.242Z,10.90
2019-01-11T12:22:47.168Z,10.93
2019-01-11T12:25:16.691Z,12.10
2019-01-11T12:27:44.411Z,10.73
2019-01-11T12:30:13.681Z,11.23
2019-01-11T12:32:42.760Z,10.77
2019-01-11T12:35:14.385Z,11.47
2019-01-11T12:37:42.463Z,10.77
2019-01-11T12:40:11.140Z,10.63
2019-01-11T12:42:39.341Z,10.77
2019-01-11T12:45:09.027Z,11.77
2019-01-11T12:47:37.174Z,17.37
2019-01-11T12:50:09.528Z,10.53
2019-01-11T12:52:37.249Z,12.80
2019-01-11T12:55:05.804Z,12.80
2019-01-11T12:57:37.250Z,14.47
2019-01-11T13:00:06.494Z,10.77
2019-01-11T13:02:34.605Z,10.83
2019-01-11T13:05:03.572Z,10.93
2019-01-11T13:07:31.243Z,12.13
2019-01-11T13:10:01.189Z,10.10
2019-01-11T13:12:29.561Z,10.37
2019-01-11T13:14:58.807Z,12.27
2019-01-11T13:17:26.477Z,10.90
2019-01-11T13:19:54.345Z,11.63
2019-01-11T13:22:22.805Z,9.37
2019-01-11T13:24:50.907Z,11.13
2019-01-11T13:27:18.669Z,10.43
2019-01-11T13:29:47.814Z,11.30
2019-01-11T13:32:17.041Z,10.03
2019-01-11T13:34:47.525Z,10.53
2019-01-11T13:37:15.281Z,12.20
2019-01-11T13:39:45.018Z,12.13
2019-01-11T13:42:14.020Z,10.40
2019-01-11T13:44:43.176Z,10.47
2019-01-11T13:47:11.106Z,11.90
2019-01-11T13:49:38.883Z,11.47
2019-01-11T13:52:08.576Z,12.47
2019-01-11T13:54:36.280Z,11.53
2019-01-11T13:57:04.019Z,11.13
2019-01-11T13:59:34.344Z,12.03
2019-01-11T14:02:02.108Z,11.43
2019-01-11T14:04:29.843Z,11.43
2019-01-11T14:06:59.280Z,12.47
2019-01-11T14:09:28.719Z,12.33
2019-01-11T14:11:58.540Z,11.03
2019-01-11T14:14:26.862Z,10.83
2019-01-11T14:16:57.763Z,11.83
2019-01-11T14:19:25.466Z,11.23
2019-01-11T14:21:53.192Z,9.93
2019-01-11T14:24:20.906Z,11.27
2019-01-11T14:26:50.318Z,11.57
2019-01-11T14:29:21.156Z,11.77
2019-01-11T14:31:56.286Z,11.63
2019-01-11T14:34:24.052Z,10.97
2019-01-11T14:36:51.756Z,10.77
2019-01-11T14:39:19.493Z,10.90
2019-01-11T14:41:47.161Z,9.77
2019-01-11T14:44:15.609Z,11.00
2019-01-11T14:46:43.656Z,11.30
2019-01-11T14:49:13.478Z,10.83
2019-01-11T14:51:41.559Z,11.97
2019-01-11T14:54:14.182Z,10.80
2019-01-11T14:56:41.947Z,11.20
2019-01-11T14:59:10.007Z,11.33
2019-01-11T15:01:39.683Z,10.70
2019-01-11T15:04:07.462Z,11.87
2019-01-11T15:06:35.297Z,11.77
2019-01-11T15:09:08.826Z,11.17
2019-01-11T15:11:39.400Z,11.33
2019-01-11T15:14:09.202Z,10.63
2019-01-11T15:16:38.233Z,12.87
2019-01-11T15:19:07.331Z,12.87
2019-01-11T15:21:35.384Z,12.13
2019-01-11T15:24:03.256Z,11.57
2019-01-11T15:26:31.009Z,9.60
2019-01-11T15:28:59.067Z,11.90
2019-01-11T15:31:27.583Z,12.73
2019-01-11T15:33:55.315Z,12.13
2019-01-11T15:36:23.206Z,12.50
2019-01-11T15:38:53.730Z,12.40
2019-01-11T15:41:21.393Z,13.43
2019-01-11T15:43:49.178Z,11.67
2019-01-11T15:46:17.000Z,14.53
2019-01-11T15:48:47.430Z,14.00
2019-01-11T15:51:17.658Z,42.20
2019-01-11T15:53:52.881Z,13.87
2019-01-11T15:56:29.721Z,11.97
2019-01-11T15:58:58.649Z,15.17
2019-01-11T16:01:29.769Z,14.70
2019-01-11T16:03:57.517Z,13.27
2019-01-11T16:06:37.738Z,14.57
2019-01-11T16:10:03.388Z,14.57
2019-01-11T16:13:27.992Z,15.50
2019-01-11T16:16:11.867Z,17.30
2019-01-11T16:18:39.547Z,18.23
2019-01-11T16:21:11.237Z,18.73
2019-01-11T16:23:38.924Z,18.43
2019-01-11T16:26:06.613Z,21.63
2019-01-11T16:28:37.431Z,19.63
2019-01-11T16:31:05.628Z,18.07
2019-01-11T16:33:35.134Z,18.97
2019-01-11T16:36:03.543Z,20.17
2019-01-11T16:38:31.641Z,20.47
2019-01-11T16:40:59.612Z,18.10
2019-01-11T16:43:28.704Z,19.90
2019-01-11T16:45:57.512Z,17.13
2019-01-11T16:48:26.805Z,18.70
2019-01-11T16:50:58.270Z,20.47
2019-01-11T16:53:25.984Z,22.07
2019-01-11T16:55:56.872Z,21.73
2019-01-11T16:58:27.280Z,19.50
2019-01-11T17:00:55.010Z,20.03
2019-01-11T17:03:26.745Z,18.77
2019-01-11T17:05:54.466Z,19.00
2019-01-11T17:08:24.813Z,20.03
2019-01-11T17:10:52.494Z,19.17
2019-01-11T17:13:23.403Z,18.90
2019-01-11T17:15:51.085Z,21.17
2019-01-11T17:18:19.447Z,19.33
2019-01-11T17:20:47.426Z,19.90
2019-01-11T17:23:16.074Z,19.20
2019-01-11T17:25:44.212Z,18.00
2019-01-11T17:28:13.170Z,28.12
2019-01-11T17:30:41.742Z,21.97
2019-01-11T17:33:09.736Z,21.07
2019-01-11T17:35:38.190Z,20.97
2019-01-11T17:38:08.428Z,20.57
2019-01-11T17:40:37.572Z,20.53
2019-01-11T17:43:08.519Z,20.53
2019-01-11T17:45:38.089Z,20.00
2019-01-11T17:48:07.337Z,22.53
2019-01-11T17:50:36.430Z,25.65
2019-01-11T17:53:04.786Z,20.87
2019-01-11T17:55:32.824Z,21.70
2019-01-11T17:58:01.014Z,22.17
2019-01-11T18:00:30.630Z,21.63
2019-01-11T18:02:59.349Z,21.83
2019-01-11T18:05:28.645Z,20.10
2019-01-11T18:07:56.889Z,21.90
2019-01-11T18:10:25.271Z,22.47
2019-01-11T18:12:53.584Z,29.30
2019-01-11T18:15:22.677Z,30.37
2019-01-11T18:17:50.731Z,43.65
2019-01-11T18:20:21.304Z,32.77
2019-01-11T18:22:49.173Z,37.30
2019-01-11T18:25:19.367Z,36.20
2019-01-11T18:27:51.116Z,35.73
2019-01-11T18:30:19.858Z,32.77
2019-01-11T18:32:47.668Z,31.10
2019-01-11T18:35:17.172Z,41.70
2019-01-11T18:37:45.291Z,32.87
2019-01-11T18:40:19.847Z,31.33
2019-01-11T18:42:48.483Z,32.63
2019-01-11T18:45:19.766Z,33.30
2019-01-11T18:47:48.162Z,26.07
2019-01-11T18:50:18.312Z,28.20
2019-01-11T18:52:46.401Z,25.90
2019-01-11T18:55:14.859Z,25.80
2019-01-11T18:57:43.444Z,26.70
2019-01-11T19:00:21.970Z,25.20
2019-01-11T19:02:51.125Z,22.67
2019-01-11T19:05:19.352Z,23.67
2019-01-11T19:07:48.019Z,21.23
2019-01-11T19:10:17.448Z,23.60
2019-01-11T19:12:45.468Z,21.63
2019-01-11T19:15:33.993Z,25.30
2019-01-11T19:18:01.724Z,21.60
2019-01-11T19:20:30.721Z,21.90
2019-01-11T19:22:59.824Z,20.43
2019-01-11T19:25:28.238Z,19.83
2019-01-11T19:27:55.931Z,18.80
2019-01-11T19:30:29.113Z,22.07
2019-01-11T19:32:57.406Z,21.50
2019-01-11T19:35:26.316Z,21.10
2019-01-11T19:37:54.873Z,22.37
2019-01-11T19:40:22.916Z,21.47
2019-01-11T19:42:51.253Z,22.73
2019-01-11T19:45:19.522Z,24.13
2019-01-11T19:47:48.345Z,24.00
2019-01-11T19:50:18.657Z,22.30
2019-01-11T19:52:47.222Z,21.90
2019-01-11T19:55:15.987Z,22.17
2019-01-11T19:57:44.566Z,21.53
2019-01-11T20:00:18.583Z,19.97
2019-01-11T20:02:48.655Z,20.50
2019-01-11T20:05:17.119Z,22.40
2019-01-11T20:07:45.923Z,22.90
2019-01-11T20:10:17.775Z,23.67
2019-01-11T20:12:45.862Z,21.73
2019-01-11T20:15:14.614Z,19.27
2019-01-11T20:17:43.034Z,21.07
2019-01-11T20:20:11.801Z,20.70
2019-01-11T20:22:39.493Z,20.47
2019-01-11T20:25:11.832Z,20.50
2019-01-11T20:27:39.569Z,21.23
2019-01-11T20:30:10.261Z,22.27
2019-01-11T20:32:38.018Z,20.90
2019-01-11T20:35:14.276Z,20.07
2019-01-11T20:37:42.879Z,19.70
2019-01-11T20:40:12.531Z,20.37
2019-01-11T20:42:40.251Z,20.17
2019-01-11T20:45:10.825Z,18.53
2019-01-11T20:47:38.845Z,20.03
2019-01-11T20:50:10.089Z,20.77
2019-01-11T20:52:38.251Z,20.30
2019-01-11T20:55:06.103Z,21.83
2019-01-11T20:57:34.202Z,21.33
2019-01-11T21:00:03.238Z,22.40
2019-01-11T21:02:31.421Z,19.07
2019-01-11T21:04:59.665Z,19.20
2019-01-11T21:07:27.703Z,21.57
2019-01-11T21:09:55.988Z,20.93
2019-01-11T21:12:24.048Z,19.50
2019-01-11T21:14:51.898Z,21.23
2019-01-11T21:17:20.365Z,19.43
2019-01-11T21:19:48.087Z,21.67
2019-01-11T21:22:16.717Z,21.03
2019-01-11T21:24:44.917Z,20.30
2019-01-11T21:27:12.890Z,22.63
2019-01-11T21:29:41.105Z,21.10
2019-01-11T21:32:09.195Z,20.90
2019-01-11T21:34:38.001Z,23.13
2019-01-11T21:37:05.762Z,22.80
2019-01-11T21:39:34.619Z,23.53
2019-01-11T21:42:02.856Z,22.60
2019-01-11T21:44:30.925Z,25.50
2019-01-11T21:46:58.623Z,22.63
2019-01-11T21:49:26.393Z,23.27
2019-01-11T21:51:54.090Z,23.00
2019-01-11T21:54:22.766Z,24.03
2019-01-11T21:56:50.485Z,23.03
2019-01-11T21:59:18.672Z,22.30
2019-01-11T22:01:46.322Z,24.07
2019-01-11T22:04:14.007Z,24.13
2019-01-11T22:06:41.768Z,23.07
2019-01-11T22:09:09.457Z,21.17
2019-01-11T22:11:37.149Z,22.27
2019-01-11T22:14:05.291Z,22.73
2019-01-11T22:16:33.498Z,21.90
2019-01-11T22:19:01.753Z,24.17
2019-01-11T22:21:29.459Z,22.17
2019-01-11T22:24:03.035Z,23.40
2019-01-11T22:26:27.397Z,21.03
2019-01-11T22:28:55.117Z,22.17
2019-01-11T22:31:22.895Z,21.67
2019-01-11T22:33:50.608Z,19.60
2019-01-11T22:36:19.593Z,22.83
2019-01-11T22:38:47.296Z,22.63
2019-01-11T22:41:17.988Z,20.03
2019-01-11T22:43:45.939Z,22.80
2019-01-11T22:46:13.626Z,23.23
2019-01-11T22:48:41.317Z,19.97
2019-01-11T22:51:09.120Z,22.67
2019-01-11T22:53:36.859Z,19.60
2019-01-11T22:56:05.074Z,22.13
2019-01-11T22:58:33.176Z,21.50
2019-01-11T23:01:11.263Z,21.67
2019-01-11T23:03:42.777Z,22.10
2019-01-11T23:06:26.947Z,22.73
2019-01-11T23:08:54.671Z,20.27
2019-01-11T23:11:51.670Z,21.00
2019-01-11T23:14:19.451Z,21.07
2019-01-11T23:17:09.943Z,22.20
2019-01-11T23:19:37.693Z,21.17
2019-01-11T23:22:05.566Z,21.83
2019-01-11T23:24:33.318Z,22.37
2019-01-11T23:27:01.087Z,21.37
2019-01-11T23:29:28.865Z,21.37
2019-01-11T23:31:56.599Z,21.83
2019-01-11T23:34:24.299Z,22.03
2019-01-11T23:36:52.392Z,19.77
2019-01-11T23:39:20.519Z,23.60
2019-01-11T23:41:48.246Z,21.97
2019-01-11T23:44:16.353Z,21.73
2019-01-11T23:46:44.252Z,22.07
2019-01-11T23:49:12.057Z,23.70
2019-01-11T23:51:40.240Z,21.97
2019-01-11T23:54:08.029Z,23.40
2019-01-11T23:56:35.720Z,22.77
2019-01-11T23:59:03.821Z,22.27
